Vancouver, WA (98661)

1:43 AM PST on December 29, 2014 (GMT -0800)
Bagley Downs | Change Station
CLOSE
Current Station
Personal Weather Station
Location: Vancouver, WA
Elevation: 171 ft
Nearby Weather Stations

Elev 171 ft 45.64 °N, 122.63 °W | Updated 5 minutes ago

Light Rain
Light Rain
38.5 °F
Feels Like 38 °F
N
0.0
Wind Variable Wind from East

Today
High -- | Low -- °F
--% Chance of Precip.
Yesterday
High -- | Low -- °F
Precip. -- in
7:50 AM 4:34 PM
First Quarter, 57% visible
Pressure 30.16 in
Visibility 10.0 miles
Clouds Few 2100 ft
Mostly Cloudy 3500 ft
Overcast 6000 ft
Windchill 38 °F
Dew Point 38 °F
Humidity 99%
Rainfall 0.07 in
Snow Depth Not available.
UV 0 out of 12
Pollen .50 out of 12
Air Quality Not available.
Flu Activity Not available.
SPECI KVUO 290925Z AUTO 00000KT 10SM -RA FEW021 BKN035 OVC060 04/03 A3016 RMK AO2 P0003 T00440028

More Conditions Fewer Conditions

Pressure 30.16 in
Visibility 10.0 miles
Clouds Few 2100 ft
Mostly Cloudy 3500 ft
Overcast 6000 ft
Windchill 38 °F
Dew Point 38 °F
Humidity 99%
Rainfall 0.07 in
Snow Depth Not available.
UV 0 out of 12
Pollen .50 out of 12
Air Quality Not available.
Flu Activity Not available.
SPECI KVUO 290925Z AUTO 00000KT 10SM -RA FEW021 BKN035 OVC060 04/03 A3016 RMK AO2 P0003 T00440028

More Conditions Fewer Conditions

10-Day Weather Forecast

Almanac

Astronomy

Dec. 29, 2014 Rise Set
Actual Time
Civil Twilight
Nautical Twilight
Astronomical Twilight
Moon
Length of Visible Light
Length of Day
Tomorrow will be .
, % of the Moon is Illuminated

Today's Extremes

State Highs State Lows

Community

WunderPhotos

Upload Photos

1,781,562 photos uploaded!

WunderBlogs® & News

Nearby

Air Quality

  Air Quality AQ Index Pollutant
Not available.

Snow Depth

Station Depth Elevation

Earthquake Activity

City Distance Mag. Time & Date
Minimum magnitude displayed is 2.5.

Coastal Water Temperatures

Place Temperature

Nearby Weather Stations